Bienvenidos al Sitio de AASANA BOLIVIA
Aeropuerto: Internaciónal El Alto
HORA UTC 18:00
11°C
Humedad: 59%

Fecha: 21/03/2019


Sin Fenómeno
ESTACIÓN:SLLP
LATITUD|LONGITUD:16-08S|68-10W
HORA UTC:18:00
DESCRIPCIÓN: SLLP 211800Z 02009KT 350V050 9999 SCT017 FEW020CB BKN200 11/03 Q1037 A3063 627.7 HR59 P7784 CB/SH NE/E/SW RETS AC NOSIG=
Regional La Paz
EstaciónAerodromoSit. GeograficaDescripción
SLSBSan Borja14-51S-66-44W SLSB 211800Z 12006KT 8000 VCSH BKN017 BKN080 24/22 Q1014 A2995 HR85 SH N NE RWY WET OPR C210=
SLUYUyuni20-27S-62-52W SLUY 211800Z 28011KT 9999 FEW030 18/M04 Q1032 A3050 657.5 HR22 CI=
SLRYReyes14-18S-67-21W SLRY 211800Z 16006KT 8000 -DZ BKN006 BKN016 OVC080 22/21 Q1014 A2997 HR90 RWY WET INOP=
SLOROruro17-57S-67-04W SLOR 211800Z 18007KT 9999 SCT020 FEW023CB 19/00 Q1034 A3053 655 .2 HR29 CI=
SLRQRurrenabaque14-25S-67-29W SLRQ 211800Z 00000KT 9999 SCT012 BKN017 BKN070 25/22 Q1014 A2996 990.3 HR88 RERA=
SLLPInternaciónal El Alto16-08S-68-10W SLLP 211800Z 02009KT 350V050 9999 SCT017 FEW020CB BKN200 11/03 Q1037 A3063 627.7 HR59 P7784 CB/SH NE/E/SW RETS AC NOSIG=
SLCNCharaña17-35S-69-25W
SLAPApolo14-44S-68-24W SLAP 211800Z 00000KT 9999 FEW012 SCT017 BKN200 21/18 Q1018 A3008 HR85 AS RERA=
SLCCCopacabana - Tito Yupanqui16-11S-69-05W
Regional Cochabamba
EstaciónAerodromoSit. GeograficaDescripción
SLAGMonteagudo19-49S-63-58W
SLVMVillamontes21-15S-63-24W SLVM 211700Z 18005KT 9999 BKN010 OVC070 19/15 Q1020 A3012 HR79=
SLPOPotosí19-32S-65-43W SLPO 211700Z 00000KT 9999 FEW023 SCT200 17/05 Q1035 A3058 636.5 HR46=
SLYAYacuiba21-57S-63-39W SLYA 211800Z 21006KT 9999 BKN015 OVC070 18/16 Q1019 A3010 943.7 HR92=
SLALAlcantari19-14S-65-09W SLAL 211800Z 36010KT 9999 BKN018 17/10 Q1027 A3034 702.9 HR64 CI=
SLTJTarija21-33S-64-42W SLTJ 211800Z 15010KT 9999 BKN023 OVC070 17/11 Q1020 A3012 814.9 HR68 SH SW/W/NW=
SLCBCochabamba17-25S-66-10W SLCB 211800Z 20006KT 150V260 9999 FEW033 FEW036CB SCT200 27/10 Q1022 A3019 749.3 HR33 CB N/NE FU NOSIG=
SLHIChimore16-58S-65-09W SLHI 211800Z 12004KT 9999 BKN017 OVC070 24/21 Q1015 A2998 988.0 HR80=
SLBJBermejo22-46S-64-18W
Regional Santa Cruz
EstaciónAerodromoSit. GeograficaDescripción
SLETEl Trompillo17-48S-63-10W SLET 211800Z 13013G25KT 992500 VCSÙÕ
SLASAscención de Guarayos15-55S-63-09W SLAS 211800Z 18016KT 9999 BKN012 OVC200 21/19 Q1017 A3003 HR91 RWY HUM OPR=
SLJVSan Javier16-16S-62-28W SLJV 211800Z 18010KT 9999 OVC015 20/17 Q1014 A2994 HR83 RWY NML =
SLRBRoboré18-19S-59-45W SLRB 211800Z 00000KT 9999 OVC006 20/19 Q1018 A3006 HR95 REDZ RWY WET OPR=
SLCPConcepción16-08S-62-01W SLCP 211800Z 18012KT 9999 OVC015 22/18 Q1017 A3003 HR78 RWY NML =
SLPSPuerto Suárez18-58S-57-49W SLPS 211800Z 21005KT 9999 BKN017 29/23 Q1014 A2995 HR70=
SLSISan Ignacio de Velasco16-23S-60-57W SLSI 211800Z 21006KT 9999 OVC015 23/18 Q1014 A2994 HR75 RWY NML =
SLTISan Matías16-20S-58-24W SLTI 211800Z 18005KT 9999 OVC015 28/22 Q1018 A3006 HR73 RWY NML =
SLJESan José de Chiquitos17-49S-60-44W SLJE 211800Z 18014KT 9999 OVC015 23/17 Q1019 A3009 HR72 RWY NML =
SLVGValle Grande18-28S-64-05W SLVG 211800Z 18004KT 9999 OVC023 19/13 Q1025 A3027 HR62 RWY NML =
SLVRInternaciónal Viru Viru17-38S-63-08W SLVR 211800Z 18010G21KT 9999 BKN017 23/18 Q1016 A3001 HR72 NOSIG=
SLCACamiri20-00S-63-31W SLCA 211800Z 00000KT 9999 OVC030 22/14 Q1020 A3012 HR65 RWY HUM C210=
Regional Beni
EstaciónAerodromoSit. GeograficaDescripción
SLBUBaures13-39S-63-42W SLBU 211700Z 14006KT 9999 BKN015 BKN080 26/23 Q1013 A2993 HR80 RWY HUM OPR=
SLRASan Ramón13-15S-64-36W SLRA 211700Z 14006KT 8000 VCSH BKN015 FEW023CB OVC070 27/23 Q1013 A2994 HR79 CB/SH SE/S RWY HUM OPR=
SLMGSan Magdalena13-15S-64-36W SLMG 211700Z 14004KT 9999 BKN015 BKN080 27/23 Q1013 A2992 HR77 RWY NML=
SLSRSanta Rosa14-04S-66-47W SLSR 211700Z 14015KT 8000 VCSH BKN015 FEW020CB OVC070 24/22 Q1015 A2999 HR90 CB/SH N/NW RWY OPR C206=
SLRIRiberalta11-00S-66-04W SLRI 211800Z 00000KT 7000 VCSH BKN015 FEW020CB BKN080 27/24 Q1012 A2989 HR84 CB/SH NE/E/SE/W=
SLGMGuayaramerín10-53S-65-23W SLGM 211800Z 34006KT 6000 TS VCSH BKN017 FEW020CB BKN080 28/24 Q1011 A2987 HR82 CB/SH N/NE/E/NW TS NW=
SLJOSan Joaquin13-03S-64-39W SLJO 211700Z 16008KT 9999 BKN015 BKN080 28/24 Q1012 A2991 HR77 RWY OPR C210=
SLTRTrinidad14-49S-64-54W SLTR 211800Z 12005KT 9999 SCT020 BKN080 26/20 Q1013 A2994 995.3 HR69 NOSIG=
SLSMSan Ignacio de Moxos14-57S-65-38W SLSM 211700Z 14008KT 9999 FEW008 BKN080 22/21 Q1015 A2999 HR96 RWY INOP=
SLCOCobija11-02S-68-47W SLCO 211800Z 18008KT 9999 BKN023 SCT200 31/24 Q1011 A2987 984.0 HR66 AC=
SLSASanta Ana de Yacuma13-45S-65-26W SLSA 211800Z 17010KT 9999 BKN015 BKN080 26/22 Q1013 A2992 HR78=